(°C)
(°C)
-1°
-1°
-1°
-1°
VNV
V
V
V
V
V
VNV
(km/h)
9-14
8-14
8-14
9-13
10-15
10-17
11-18
(mm)
0
0
0
0
0
0
0
(%)
7
1
1
0
0
0
0

Elevația soarelui

/ -40.9°
sun-icon
UV 1
06:52
17:24
Primul pătrar (167°)
17:19
05:06

METAR pentru 51.82°N 39.23°E (UUOO)

Ora Condiții Temperatură/
Punctul de rouă
Vânt Vizibilitate Vremea Nori Presiune Schimbă Brut
VFR 5°C / 2°C 280º 4kt >10km - Clouds and Visibility OK 1014 No Significant change. Runway 30: Wet or puddles, 51-100% contamination with 2mm, friction coefficient 0.50. UUOO 182300Z 28002MPS CAVOK 05/02 Q1014 R30/290250 NOSIG RMK QFE747
VFR 5°C / 2°C 280º 6kt >10km - Overcast 3900ft 1014 No Significant change. Runway 30: Wet or puddles, 51-100% contamination with 2mm, friction coefficient 0.50. UUOO 182230Z 28003MPS 9999 OVC039 05/02 Q1014 R30/290250 NOSIG RMK QFE747
VFR 5°C / 3°C 300º 6kt >10km - Clouds and Visibility OK 1014 No Significant change. Runway 30: Wet or puddles, 51-100% contamination with 2mm, friction coefficient 0.50. UUOO 182200Z 30003MPS CAVOK 05/03 Q1014 R30/290250 NOSIG RMK QFE747
VFR 5°C / 3°C 300º 4kt >10km - Overcast 3400ft 1013 No Significant change. Runway 30: Wet or puddles, 51-100% contamination with 2mm, friction coefficient 0.50. UUOO 182130Z 30002MPS 9999 OVC034 05/03 Q1013 R30/290250 NOSIG RMK QFE747
MVFR 6°C / 4°C 320º 8kt >10km Light Rain 1.00mm precipitation Vertical Visibility of 0ft. 1014 No Significant change. Runway 30: Wet or puddles, 51-100% contamination with 2mm, friction coefficient 0.50. UUOO 182100Z 32004MPS 9999 -RA OVC029 06/04 Q1014 R30/290250 NOSIG RMK QFE747
MVFR 6°C / 5°C 310º 10kt >10km Light Rain 1.00mm precipitation Vertical Visibility of 0ft. 1014 No Significant change. Runway 30: Wet or puddles, 51-100% contamination with 2mm, friction coefficient 0.50. UUOO 182030Z 31005MPS 9999 -RA OVC023 06/05 Q1014 R30/290250 NOSIG RMK QFE747
MVFR 7°C / 5°C 280º 6kt >10km Light Rain 1.00mm precipitation Vertical Visibility of 0ft. 1013 No Significant change. Runway 30: Wet or puddles, 51-100% contamination with 2mm, friction coefficient 0.50. UUOO 182000Z 28003MPS 9999 -RA OVC014 07/05 Q1013 R30/290250 NOSIG RMK QFE746
MVFR 7°C / 5°C 260º 6kt >10km Light Rain 1.00mm precipitation Vertical Visibility of 0ft. 1013 No Significant change. Runway 30: Wet or puddles, 51-100% contamination with 2mm, friction coefficient 0.50. UUOO 181930Z 26003MPS 9999 -RA BKN025 07/05 Q1013 R30/290250 NOSIG RMK QFE746
MVFR 7°C / 3°C 280º 8kt 9000m Light Rain 1.00mm precipitation Vertical Visibility of 0ft. 1013 No Significant change. Runway 30: Clear and dry, 1-10% contamination with <1mm, friction coefficient 0.70. UUOO 181900Z 28004MPS 9000 -RA BKN016 07/03 Q1013 R30/010070 NOSIG RMK QFE746
VFR 8°C / 2°C 260º 6kt >10km Light Rain 1.00mm precipitation Vertical Visibility of 0ft. 1013 No Significant change. Runway 30: Clear and dry, 1-10% contamination with <1mm, friction coefficient 0.70. UUOO 181830Z 26003MPS 9999 -RA BKN033 08/02 Q1013 R30/010070 NOSIG RMK QFE746
VFR 8°C / 3°C 250º 6kt >10km - Broken Clouds 4000ft 1013 No Significant change. Runway 30: Clear and dry, 1-10% contamination with <1mm, friction coefficient 0.70. UUOO 181800Z 25003MPS 9999 BKN040 08/03 Q1013 R30/010070 NOSIG RMK QFE746
VFR 8°C / 2°C 260º 6kt >10km - Broken Clouds 4900ft 1013 No Significant change. Runway 30: Clear and dry, 1-10% contamination with <1mm, friction coefficient 0.70. UUOO 181730Z 26003MPS 9999 BKN049 08/02 Q1013 R30/010070 NOSIG RMK QFE746
VFR 8°C / 3°C 260º 4kt >10km - Clouds and Visibility OK 1013 No Significant change. Runway 30: Clear and dry, 1-10% contamination with <1mm, friction coefficient 0.70. UUOO 181700Z 26002MPS CAVOK 08/03 Q1013 R30/010070 NOSIG RMK QFE746
VFR 7°C / 2°C 250º 4kt >10km - Clouds and Visibility OK 1013 No Significant change. Runway 30: Clear and dry, 1-10% contamination with <1mm, friction coefficient 0.70. UUOO 181630Z 25002MPS CAVOK 07/02 Q1013 R30/010070 NOSIG RMK QFE746
VFR 8°C / 2°C 250º 6kt >10km - Clouds and Visibility OK 1013 No Significant change. Runway 30: Clear and dry, 1-10% contamination with <1mm, friction coefficient 0.70. UUOO 181600Z 25003MPS CAVOK 08/02 Q1013 R30/010070 NOSIG RMK QFE746
VFR 8°C / 2°C 280º 6kt >10km - Clouds and Visibility OK 1013 No Significant change. Runway 30: Clear and dry, 1-10% contamination with <1mm, friction coefficient 0.70. UUOO 181530Z 28003MPS CAVOK 08/02 Q1013 R30/010070 NOSIG RMK QFE746
VFR 9°C / 2°C 280º 6kt >10km - Clouds and Visibility OK 1013 No Significant change. Runway 30: Clear and dry, 1-10% contamination with <1mm, friction coefficient 0.70. UUOO 181500Z 28003MPS CAVOK 09/02 Q1013 R30/010070 NOSIG RMK QFE746
VFR 9°C / 2°C 260º 6kt >10km - Clouds and Visibility OK 1012 No Significant change. Runway 30: Clear and dry, 1-10% contamination with <1mm, friction coefficient 0.70. UUOO 181430Z 26003MPS CAVOK 09/02 Q1012 R30/010070 NOSIG RMK QFE746
VFR 10°C / 2°C 270º 8kt >10km - Clouds and Visibility OK 1012 No Significant change. Runway 30: Clear and dry, 1-10% contamination with <1mm, friction coefficient 0.70. UUOO 181400Z 27004MPS CAVOK 10/02 Q1012 R30/010070 NOSIG RMK QFE746
VFR 11°C / 2°C 280º 8kt >10km - Clouds and Visibility OK 1012 No Significant change. Runway 30: Clear and dry, 1-10% contamination with <1mm, friction coefficient 0.70. UUOO 181330Z 28004MPS CAVOK 11/02 Q1012 R30/010070 NOSIG RMK QFE746
VFR 11°C / 2°C 280º 10kt >10km - Broken Clouds 4100ft 1012 No Significant change. Runway 30: Clear and dry, 1-10% contamination with <1mm, friction coefficient 0.70. UUOO 181300Z 28005MPS 9999 BKN041 11/02 Q1012 R30/010070 NOSIG RMK QFE746
VFR 11°C / 2°C 270º 10kt >10km - Broken Clouds 3500ft 1012 No Significant change. Runway 30: Clear and dry, 1-10% contamination with <1mm, friction coefficient 0.70. UUOO 181230Z 27005MPS 9999 BKN035 11/02 Q1012 R30/010070 NOSIG RMK QFE746
VFR 11°C / 2°C 260º 10kt >10km - Clouds and Visibility OK 1012 No Significant change. Runway 30: Clear and dry, 1-10% contamination with <1mm, friction coefficient 0.70. UUOO 181200Z 26005MPS CAVOK 11/02 Q1012 R30/010070 NOSIG RMK QFE746
VFR 11°C / 2°C 270º 10kt >10km - Broken Clouds 3800ft 1012 No Significant change. Runway 30: Clear and dry, 1-10% contamination with <1mm, friction coefficient 0.70. UUOO 181130Z 27005MPS 9999 BKN038 11/02 Q1012 R30/010070 NOSIG RMK QFE746

VFR

5°C / 2°C

[Mai mult]
Vânt 280º 4kt
Vizibilitate >10km
Vremea -
Nori Clouds and Visibility OK
Presiune 1014
Schimbă No Significant change. Runway 30: Wet or puddles, 51-100% contamination with 2mm, friction coefficient 0.50.
Brut UUOO 182300Z 28002MPS CAVOK 05/02 Q1014 R30/290250 NOSIG RMK QFE747

VFR

5°C / 2°C

[Mai mult]
Vânt 280º 6kt
Vizibilitate >10km
Vremea -
Nori Overcast 3900ft
Presiune 1014
Schimbă No Significant change. Runway 30: Wet or puddles, 51-100% contamination with 2mm, friction coefficient 0.50.
Brut UUOO 182230Z 28003MPS 9999 OVC039 05/02 Q1014 R30/290250 NOSIG RMK QFE747

VFR

5°C / 3°C

[Mai mult]
Vânt 300º 6kt
Vizibilitate >10km
Vremea -
Nori Clouds and Visibility OK
Presiune 1014
Schimbă No Significant change. Runway 30: Wet or puddles, 51-100% contamination with 2mm, friction coefficient 0.50.
Brut UUOO 182200Z 30003MPS CAVOK 05/03 Q1014 R30/290250 NOSIG RMK QFE747

VFR

5°C / 3°C

[Mai mult]
Vânt 300º 4kt
Vizibilitate >10km
Vremea -
Nori Overcast 3400ft
Presiune 1013
Schimbă No Significant change. Runway 30: Wet or puddles, 51-100% contamination with 2mm, friction coefficient 0.50.
Brut UUOO 182130Z 30002MPS 9999 OVC034 05/03 Q1013 R30/290250 NOSIG RMK QFE747

MVFR

6°C / 4°C

[Mai mult]
Vânt 320º 8kt
Vizibilitate >10km
Vremea Light Rain 1.00mm precipitation
Nori Vertical Visibility of 0ft.
Presiune 1014
Schimbă No Significant change. Runway 30: Wet or puddles, 51-100% contamination with 2mm, friction coefficient 0.50.
Brut UUOO 182100Z 32004MPS 9999 -RA OVC029 06/04 Q1014 R30/290250 NOSIG RMK QFE747

MVFR

6°C / 5°C

[Mai mult]
Vânt 310º 10kt
Vizibilitate >10km
Vremea Light Rain 1.00mm precipitation
Nori Vertical Visibility of 0ft.
Presiune 1014
Schimbă No Significant change. Runway 30: Wet or puddles, 51-100% contamination with 2mm, friction coefficient 0.50.
Brut UUOO 182030Z 31005MPS 9999 -RA OVC023 06/05 Q1014 R30/290250 NOSIG RMK QFE747

MVFR

7°C / 5°C

[Mai mult]
Vânt 280º 6kt
Vizibilitate >10km
Vremea Light Rain 1.00mm precipitation
Nori Vertical Visibility of 0ft.
Presiune 1013
Schimbă No Significant change. Runway 30: Wet or puddles, 51-100% contamination with 2mm, friction coefficient 0.50.
Brut UUOO 182000Z 28003MPS 9999 -RA OVC014 07/05 Q1013 R30/290250 NOSIG RMK QFE746

MVFR

7°C / 5°C

[Mai mult]
Vânt 260º 6kt
Vizibilitate >10km
Vremea Light Rain 1.00mm precipitation
Nori Vertical Visibility of 0ft.
Presiune 1013
Schimbă No Significant change. Runway 30: Wet or puddles, 51-100% contamination with 2mm, friction coefficient 0.50.
Brut UUOO 181930Z 26003MPS 9999 -RA BKN025 07/05 Q1013 R30/290250 NOSIG RMK QFE746

MVFR

7°C / 3°C

[Mai mult]
Vânt 280º 8kt
Vizibilitate 9000m
Vremea Light Rain 1.00mm precipitation
Nori Vertical Visibility of 0ft.
Presiune 1013
Schimbă No Significant change. Runway 30: Clear and dry, 1-10% contamination with <1mm, friction coefficient 0.70.
Brut UUOO 181900Z 28004MPS 9000 -RA BKN016 07/03 Q1013 R30/010070 NOSIG RMK QFE746

VFR

8°C / 2°C

[Mai mult]
Vânt 260º 6kt
Vizibilitate >10km
Vremea Light Rain 1.00mm precipitation
Nori Vertical Visibility of 0ft.
Presiune 1013
Schimbă No Significant change. Runway 30: Clear and dry, 1-10% contamination with <1mm, friction coefficient 0.70.
Brut UUOO 181830Z 26003MPS 9999 -RA BKN033 08/02 Q1013 R30/010070 NOSIG RMK QFE746

VFR

8°C / 3°C

[Mai mult]
Vânt 250º 6kt
Vizibilitate >10km
Vremea -
Nori Broken Clouds 4000ft
Presiune 1013
Schimbă No Significant change. Runway 30: Clear and dry, 1-10% contamination with <1mm, friction coefficient 0.70.
Brut UUOO 181800Z 25003MPS 9999 BKN040 08/03 Q1013 R30/010070 NOSIG RMK QFE746

VFR

8°C / 2°C

[Mai mult]
Vânt 260º 6kt
Vizibilitate >10km
Vremea -
Nori Broken Clouds 4900ft
Presiune 1013
Schimbă No Significant change. Runway 30: Clear and dry, 1-10% contamination with <1mm, friction coefficient 0.70.
Brut UUOO 181730Z 26003MPS 9999 BKN049 08/02 Q1013 R30/010070 NOSIG RMK QFE746

VFR

8°C / 3°C

[Mai mult]
Vânt 260º 4kt
Vizibilitate >10km
Vremea -
Nori Clouds and Visibility OK
Presiune 1013
Schimbă No Significant change. Runway 30: Clear and dry, 1-10% contamination with <1mm, friction coefficient 0.70.
Brut UUOO 181700Z 26002MPS CAVOK 08/03 Q1013 R30/010070 NOSIG RMK QFE746

VFR

7°C / 2°C

[Mai mult]
Vânt 250º 4kt
Vizibilitate >10km
Vremea -
Nori Clouds and Visibility OK
Presiune 1013
Schimbă No Significant change. Runway 30: Clear and dry, 1-10% contamination with <1mm, friction coefficient 0.70.
Brut UUOO 181630Z 25002MPS CAVOK 07/02 Q1013 R30/010070 NOSIG RMK QFE746

VFR

8°C / 2°C

[Mai mult]
Vânt 250º 6kt
Vizibilitate >10km
Vremea -
Nori Clouds and Visibility OK
Presiune 1013
Schimbă No Significant change. Runway 30: Clear and dry, 1-10% contamination with <1mm, friction coefficient 0.70.
Brut UUOO 181600Z 25003MPS CAVOK 08/02 Q1013 R30/010070 NOSIG RMK QFE746

VFR

8°C / 2°C

[Mai mult]
Vânt 280º 6kt
Vizibilitate >10km
Vremea -
Nori Clouds and Visibility OK
Presiune 1013
Schimbă No Significant change. Runway 30: Clear and dry, 1-10% contamination with <1mm, friction coefficient 0.70.
Brut UUOO 181530Z 28003MPS CAVOK 08/02 Q1013 R30/010070 NOSIG RMK QFE746

VFR

9°C / 2°C

[Mai mult]
Vânt 280º 6kt
Vizibilitate >10km
Vremea -
Nori Clouds and Visibility OK
Presiune 1013
Schimbă No Significant change. Runway 30: Clear and dry, 1-10% contamination with <1mm, friction coefficient 0.70.
Brut UUOO 181500Z 28003MPS CAVOK 09/02 Q1013 R30/010070 NOSIG RMK QFE746

VFR

9°C / 2°C

[Mai mult]
Vânt 260º 6kt
Vizibilitate >10km
Vremea -
Nori Clouds and Visibility OK
Presiune 1012
Schimbă No Significant change. Runway 30: Clear and dry, 1-10% contamination with <1mm, friction coefficient 0.70.
Brut UUOO 181430Z 26003MPS CAVOK 09/02 Q1012 R30/010070 NOSIG RMK QFE746

VFR

10°C / 2°C

[Mai mult]
Vânt 270º 8kt
Vizibilitate >10km
Vremea -
Nori Clouds and Visibility OK
Presiune 1012
Schimbă No Significant change. Runway 30: Clear and dry, 1-10% contamination with <1mm, friction coefficient 0.70.
Brut UUOO 181400Z 27004MPS CAVOK 10/02 Q1012 R30/010070 NOSIG RMK QFE746

VFR

11°C / 2°C

[Mai mult]
Vânt 280º 8kt
Vizibilitate >10km
Vremea -
Nori Clouds and Visibility OK
Presiune 1012
Schimbă No Significant change. Runway 30: Clear and dry, 1-10% contamination with <1mm, friction coefficient 0.70.
Brut UUOO 181330Z 28004MPS CAVOK 11/02 Q1012 R30/010070 NOSIG RMK QFE746

VFR

11°C / 2°C

[Mai mult]
Vânt 280º 10kt
Vizibilitate >10km
Vremea -
Nori Broken Clouds 4100ft
Presiune 1012
Schimbă No Significant change. Runway 30: Clear and dry, 1-10% contamination with <1mm, friction coefficient 0.70.
Brut UUOO 181300Z 28005MPS 9999 BKN041 11/02 Q1012 R30/010070 NOSIG RMK QFE746

VFR

11°C / 2°C

[Mai mult]
Vânt 270º 10kt
Vizibilitate >10km
Vremea -
Nori Broken Clouds 3500ft
Presiune 1012
Schimbă No Significant change. Runway 30: Clear and dry, 1-10% contamination with <1mm, friction coefficient 0.70.
Brut UUOO 181230Z 27005MPS 9999 BKN035 11/02 Q1012 R30/010070 NOSIG RMK QFE746

VFR

11°C / 2°C

[Mai mult]
Vânt 260º 10kt
Vizibilitate >10km
Vremea -
Nori Clouds and Visibility OK
Presiune 1012
Schimbă No Significant change. Runway 30: Clear and dry, 1-10% contamination with <1mm, friction coefficient 0.70.
Brut UUOO 181200Z 26005MPS CAVOK 11/02 Q1012 R30/010070 NOSIG RMK QFE746

VFR

11°C / 2°C

[Mai mult]
Vânt 270º 10kt
Vizibilitate >10km
Vremea -
Nori Broken Clouds 3800ft
Presiune 1012
Schimbă No Significant change. Runway 30: Clear and dry, 1-10% contamination with <1mm, friction coefficient 0.70.
Brut UUOO 181130Z 27005MPS 9999 BKN038 11/02 Q1012 R30/010070 NOSIG RMK QFE746

TAF pentru 51.82°N 39.23°E (UUOO)

From till


From till Wind 280º 6kt. Visibility 10km or more. Broken Clouds 1600ft.

Brut: TAF UUOO 182000Z 1821/1906 28003MPS 9999 BKN016

Imagini satelitare și ploaie pentru 51.82°N 39.23°E

Markerul cu locaţia este poziţionat pe 51.82°N 39.23°E. [Mai mult]

Imaginea satelitară în timp real combină lumina vizibilă din timpul zilei cu radiația cu infraroșu din timpul nopții. Pe timp de noapte, imaginea nu este întunecată, deoarece radiația cu infraroșu poate detecta diferențele de temperatură. Din păcate, norii joși și ceața sunt greu de recunoscut față de temperatura de la sol, din această cauză putând fi invizibili pe timp de noapte. Imaginile satelitare Meteosat pentru Europa sunt actualizate în timp real din 5 în 5 minute. Imaginile GOES-16/GOES-17 (America de Nord și de Sud) și Himawari (Asia) sunt actualizate din 10 în 10 minute.

Toate drepturile rezervate 2021 EUMETSAT / meteoblue. / Toate drepturile rezervate 2021 meteoblue

Radar și nowcast de precipitații pentru 51.82°N 39.23°E

Burniță
Ușoară
Moderat
Greu
Foarte greu
Grindină

Markerul de locație este plasat în 51.82°N 39.23°E. Această animație arată radarul de precipitații pentru ultima oră, precum și o 1h prognoză. Ploaia sau ninsoarea slabă ar putea fi invizibilă pentru radar. Intensitatea precipitațiilor este codificată prin culori, de la albastru deschis la portocaliu.